sensor_id;sensor_type;location;lat;lon;timestamp;P1;P2;P0
47079;PMS5003;33067;49.296;14.470;2023-09-18T00:22:25;56;56;
47079;PMS5003;33067;49.296;14.470;2023-09-18T00:24:50;17;17;
47079;PMS5003;33067;49.296;14.470;2023-09-18T00:27:15;16;16;
47079;PMS5003;33067;49.296;14.470;2023-09-18T00:29:52;54;51;
47079;PMS5003;33067;49.296;14.470;2023-09-18T00:34:41;16;15;
47079;PMS5003;33067;49.296;14.470;2023-09-18T00:37:02;22;20;
47079;PMS5003;33067;49.296;14.470;2023-09-18T00:39:22;19;16;
47079;PMS5003;33067;49.296;14.470;2023-09-18T00:41:52;32;32;
47079;PMS5003;33067;49.296;14.470;2023-09-18T00:44:13;17;17;
47079;PMS5003;33067;49.296;14.470;2023-09-18T00:46:38;35;35;
47079;PMS5003;33067;49.296;14.470;2023-09-18T00:53:54;20;20;
47079;PMS5003;33067;49.296;14.470;2023-09-18T00:56:21;22;22;
47079;PMS5003;33067;49.296;14.470;2023-09-18T00:58:45;28;28;
47079;PMS5003;33067;49.296;14.470;2023-09-18T01:03:36;30;29;
47079;PMS5003;33067;49.296;14.470;2023-09-18T01:06:07;20;20;
47079;PMS5003;33067;49.296;14.470;2023-09-18T01:08:27;27;26;
47079;PMS5003;33067;49.296;14.470;2023-09-18T01:11:00;20;20;
47079;PMS5003;33067;49.296;14.470;2023-09-18T01:13:19;22;22;
47079;PMS5003;33067;49.296;14.470;2023-09-18T01:15:43;24;22;
47079;PMS5003;33067;49.296;14.470;2023-09-18T01:18:09;16;16;
47079;PMS5003;33067;49.296;14.470;2023-09-18T01:20:34;27;25;
47079;PMS5003;33067;49.296;14.470;2023-09-18T01:22:59;18;18;
47079;PMS5003;33067;49.296;14.470;2023-09-18T01:25:25;20;20;
47079;PMS5003;33067;49.296;14.470;2023-09-18T01:27:50;18;18;
47079;PMS5003;33067;49.296;14.470;2023-09-18T01:32:41;16;16;
47079;PMS5003;33067;49.296;14.470;2023-09-18T01:42:24;19;19;
47079;PMS5003;33067;49.296;14.470;2023-09-18T01:52:07;32;30;
47079;PMS5003;33067;49.296;14.470;2023-09-18T01:54:32;16;16;
47079;PMS5003;33067;49.296;14.470;2023-09-18T01:59:23;13;12;
47079;PMS5003;33067;49.296;14.470;2023-09-18T02:01:49;20;20;
47079;PMS5003;33067;49.296;14.470;2023-09-18T02:04:14;25;25;
47079;PMS5003;33067;49.296;14.470;2023-09-18T02:06:41;30;30;
47079;PMS5003;33067;49.296;14.470;2023-09-18T02:09:05;26;26;
47079;PMS5003;33067;49.296;14.470;2023-09-18T02:15:25;30;30;
47079;PMS5003;33067;49.296;14.470;2023-09-18T02:20:17;18;18;
47079;PMS5003;33067;49.296;14.470;2023-09-18T02:22:42;18;18;
47079;PMS5003;33067;49.296;14.470;2023-09-18T02:25:08;19;19;
47079;PMS5003;33067;49.296;14.470;2023-09-18T02:27:33;17;17;
47079;PMS5003;33067;49.296;14.470;2023-09-18T02:32:24;16;16;
47079;PMS5003;33067;49.296;14.470;2023-09-18T02:34:51;18;18;
47079;PMS5003;33067;49.296;14.470;2023-09-18T02:37:14;16;16;
47079;PMS5003;33067;49.296;14.470;2023-09-18T02:39:40;15;15;
47079;PMS5003;33067;49.296;14.470;2023-09-18T02:42:15;17;17;
47079;PMS5003;33067;49.296;14.470;2023-09-18T02:44:36;34;34;
47079;PMS5003;33067;49.296;14.470;2023-09-18T02:46:57;22;22;
47079;PMS5003;33067;49.296;14.470;2023-09-18T02:49:22;11;11;
47079;PMS5003;33067;49.296;14.470;2023-09-18T02:51:47;13;13;
47079;PMS5003;33067;49.296;14.470;2023-09-18T02:54:12;11;11;
47079;PMS5003;33067;49.296;14.470;2023-09-18T02:56:37;13;13;
47079;PMS5003;33067;49.296;14.470;2023-09-18T02:59:03;12;12;
47079;PMS5003;33067;49.296;14.470;2023-09-18T03:01:28;12;12;
47079;PMS5003;33067;49.296;14.470;2023-09-18T03:03:53;14;13;
47079;PMS5003;33067;49.296;14.470;2023-09-18T03:06:18;13;13;
47079;PMS5003;33067;49.296;14.470;2023-09-18T03:08:44;13;13;
47079;PMS5003;33067;49.296;14.470;2023-09-18T03:11:11;11;11;
47079;PMS5003;33067;49.296;14.470;2023-09-18T03:13:34;15;15;
47079;PMS5003;33067;49.296;14.470;2023-09-18T03:16:00;13;13;
47079;PMS5003;33067;49.296;14.470;2023-09-18T03:18:25;15;15;
47079;PMS5003;33067;49.296;14.470;2023-09-18T03:20:50;13;13;
47079;PMS5003;33067;49.296;14.470;2023-09-18T03:23:16;13;13;
47079;PMS5003;33067;49.296;14.470;2023-09-18T03:25:41;21;21;
47079;PMS5003;33067;49.296;14.470;2023-09-18T03:28:06;14;14;
47079;PMS5003;33067;49.296;14.470;2023-09-18T03:30:31;18;16;
47079;PMS5003;33067;49.296;14.470;2023-09-18T03:32:56;14;14;
47079;PMS5003;33067;49.296;14.470;2023-09-18T03:35:22;39;39;
47079;PMS5003;33067;49.296;14.470;2023-09-18T03:37:48;14;14;
47079;PMS5003;33067;49.296;14.470;2023-09-18T03:40:15;25;24;
47079;PMS5003;33067;49.296;14.470;2023-09-18T03:42:39;24;24;
47079;PMS5003;33067;49.296;14.470;2023-09-18T03:47:35;13;12;
47079;PMS5003;33067;49.296;14.470;2023-09-18T03:50:00;13;13;
47079;PMS5003;33067;49.296;14.470;2023-09-18T03:54:45;12;12;
47079;PMS5003;33067;49.296;14.470;2023-09-18T03:57:10;14;13;
47079;PMS5003;33067;49.296;14.470;2023-09-18T03:59:35;15;15;
47079;PMS5003;33067;49.296;14.470;2023-09-18T04:02:00;13;13;
47079;PMS5003;33067;49.296;14.470;2023-09-18T04:04:26;14;14;
47079;PMS5003;33067;49.296;14.470;2023-09-18T04:06:51;12;12;
47079;PMS5003;33067;49.296;14.470;2023-09-18T04:09:16;12;12;
47079;PMS5003;33067;49.296;14.470;2023-09-18T04:11:41;16;13;
47079;PMS5003;33067;49.296;14.470;2023-09-18T04:14:06;15;15;
47079;PMS5003;33067;49.296;14.470;2023-09-18T04:18:57;13;13;
47079;PMS5003;33067;49.296;14.470;2023-09-18T04:21:27;16;14;
47079;PMS5003;33067;49.296;14.470;2023-09-18T04:28:44;16;13;
47079;PMS5003;33067;49.296;14.470;2023-09-18T04:31:24;14;14;
47079;PMS5003;33067;49.296;14.470;2023-09-18T04:33:29;14;14;
47079;PMS5003;33067;49.296;14.470;2023-09-18T04:35:54;12;12;
47079;PMS5003;33067;49.296;14.470;2023-09-18T04:38:25;15;15;
47079;PMS5003;33067;49.296;14.470;2023-09-18T04:43:21;16;15;
47079;PMS5003;33067;49.296;14.470;2023-09-18T04:45:47;17;15;
47079;PMS5003;33067;49.296;14.470;2023-09-18T04:50:32;15;12;
47079;PMS5003;33067;49.296;14.470;2023-09-18T04:52:51;14;14;
47079;PMS5003;33067;49.296;14.470;2023-09-18T04:55:26;15;15;
47079;PMS5003;33067;49.296;14.470;2023-09-18T04:57:47;14;12;
47079;PMS5003;33067;49.296;14.470;2023-09-18T05:00:08;14;14;
47079;PMS5003;33067;49.296;14.470;2023-09-18T05:07:23;14;13;
47079;PMS5003;33067;49.296;14.470;2023-09-18T05:12:23;14;13;
47079;PMS5003;33067;49.296;14.470;2023-09-18T05:14:48;18;18;
47079;PMS5003;33067;49.296;14.470;2023-09-18T05:17:10;16;16;
47079;PMS5003;33067;49.296;14.470;2023-09-18T05:19:39;15;14;
47079;PMS5003;33067;49.296;14.470;2023-09-18T05:24:35;15;15;
47079;PMS5003;33067;49.296;14.470;2023-09-18T05:26:45;13;13;
47079;PMS5003;33067;49.296;14.470;2023-09-18T05:29:10;15;15;
47079;PMS5003;33067;49.296;14.470;2023-09-18T05:31:37;15;15;
47079;PMS5003;33067;49.296;14.470;2023-09-18T05:36:27;15;15;
47079;PMS5003;33067;49.296;14.470;2023-09-18T05:38:52;15;15;
47079;PMS5003;33067;49.296;14.470;2023-09-18T05:41:28;18;18;
47079;PMS5003;33067;49.296;14.470;2023-09-18T05:46:09;23;23;
47079;PMS5003;33067;49.296;14.470;2023-09-18T05:53:25;13;13;
47079;PMS5003;33067;49.296;14.470;2023-09-18T05:55:59;13;12;
47079;PMS5003;33067;49.296;14.470;2023-09-18T05:58:16;14;14;
47079;PMS5003;33067;49.296;14.470;2023-09-18T06:00:42;17;15;
47079;PMS5003;33067;49.296;14.470;2023-09-18T06:03:07;18;17;
47079;PMS5003;33067;49.296;14.470;2023-09-18T06:05:32;17;17;
47079;PMS5003;33067;49.296;14.470;2023-09-18T06:07:59;15;15;
47079;PMS5003;33067;49.296;14.470;2023-09-18T06:10:24;18;16;
47079;PMS5003;33067;49.296;14.470;2023-09-18T06:12:49;17;17;
47079;PMS5003;33067;49.296;14.470;2023-09-18T06:15:14;15;15;
47079;PMS5003;33067;49.296;14.470;2023-09-18T06:17:40;17;15;
47079;PMS5003;33067;49.296;14.470;2023-09-18T06:20:06;22;22;
47079;PMS5003;33067;49.296;14.470;2023-09-18T06:22:30;16;16;
47079;PMS5003;33067;49.296;14.470;2023-09-18T06:24:56;19;18;
47079;PMS5003;33067;49.296;14.470;2023-09-18T06:27:21;17;17;
47079;PMS5003;33067;49.296;14.470;2023-09-18T06:29:47;16;15;
47079;PMS5003;33067;49.296;14.470;2023-09-18T06:32:13;16;16;
47079;PMS5003;33067;49.296;14.470;2023-09-18T06:34:39;16;16;
47079;PMS5003;33067;49.296;14.470;2023-09-18T06:37:05;16;16;
47079;PMS5003;33067;49.296;14.470;2023-09-18T06:39:30;19;17;
47079;PMS5003;33067;49.296;14.470;2023-09-18T06:41:56;21;19;
47079;PMS5003;33067;49.296;14.470;2023-09-18T06:44:22;17;17;
47079;PMS5003;33067;49.296;14.470;2023-09-18T06:46:48;16;16;
47079;PMS5003;33067;49.296;14.470;2023-09-18T06:49:13;19;18;
47079;PMS5003;33067;49.296;14.470;2023-09-18T06:51:39;21;21;
47079;PMS5003;33067;49.296;14.470;2023-09-18T06:54:05;18;18;
47079;PMS5003;33067;49.296;14.470;2023-09-18T06:56:36;20;19;
47079;PMS5003;33067;49.296;14.470;2023-09-18T06:58:56;18;17;
47079;PMS5003;33067;49.296;14.470;2023-09-18T07:01:22;20;20;
47079;PMS5003;33067;49.296;14.470;2023-09-18T07:03:47;21;20;
47079;PMS5003;33067;49.296;14.470;2023-09-18T07:06:13;20;20;
47079;PMS5003;33067;49.296;14.470;2023-09-18T07:08:39;23;23;
47079;PMS5003;33067;49.296;14.470;2023-09-18T07:11:04;24;24;
47079;PMS5003;33067;49.296;14.470;2023-09-18T07:13:30;19;19;
47079;PMS5003;33067;49.296;14.470;2023-09-18T07:15:55;18;18;
47079;PMS5003;33067;49.296;14.470;2023-09-18T07:18:21;18;18;
47079;PMS5003;33067;49.296;14.470;2023-09-18T07:20:46;20;20;
47079;PMS5003;33067;49.296;14.470;2023-09-18T07:23:12;31;27;
47079;PMS5003;33067;49.296;14.470;2023-09-18T07:25:37;19;19;
47079;PMS5003;33067;49.296;14.470;2023-09-18T07:28:03;22;21;
47079;PMS5003;33067;49.296;14.470;2023-09-18T07:30:28;23;22;
47079;PMS5003;33067;49.296;14.470;2023-09-18T07:32:55;21;21;
47079;PMS5003;33067;49.296;14.470;2023-09-18T07:35:20;18;18;
47079;PMS5003;33067;49.296;14.470;2023-09-18T07:37:46;22;22;
47079;PMS5003;33067;49.296;14.470;2023-09-18T07:40:11;21;21;
47079;PMS5003;33067;49.296;14.470;2023-09-18T07:42:37;20;20;
47079;PMS5003;33067;49.296;14.470;2023-09-18T07:45:03;23;23;
47079;PMS5003;33067;49.296;14.470;2023-09-18T07:47:29;26;26;
47079;PMS5003;33067;49.296;14.470;2023-09-18T07:49:55;18;18;
47079;PMS5003;33067;49.296;14.470;2023-09-18T07:52:19;17;17;
47079;PMS5003;33067;49.296;14.470;2023-09-18T07:54:45;20;19;
47079;PMS5003;33067;49.296;14.470;2023-09-18T07:57:11;22;22;
47079;PMS5003;33067;49.296;14.470;2023-09-18T08:02:01;24;22;
47079;PMS5003;33067;49.296;14.470;2023-09-18T08:04:27;29;29;
47079;PMS5003;33067;49.296;14.470;2023-09-18T08:06:52;23;23;
47079;PMS5003;33067;49.296;14.470;2023-09-18T08:11:44;20;20;
47079;PMS5003;33067;49.296;14.470;2023-09-18T08:19:01;18;18;
47079;PMS5003;33067;49.296;14.470;2023-09-18T08:21:26;23;20;
47079;PMS5003;33067;49.296;14.470;2023-09-18T08:26:17;22;21;
47079;PMS5003;33067;49.296;14.470;2023-09-18T08:28:51;19;19;
47079;PMS5003;33067;49.296;14.470;2023-09-18T08:31:09;26;24;
47079;PMS5003;33067;49.296;14.470;2023-09-18T08:33:34;19;17;
47079;PMS5003;33067;49.296;14.470;2023-09-18T08:35:59;19;19;
47079;PMS5003;33067;49.296;14.470;2023-09-18T08:38:25;23;23;
47079;PMS5003;33067;49.296;14.470;2023-09-18T08:40:50;22;22;
47079;PMS5003;33067;49.296;14.470;2023-09-18T08:43:16;20;19;
47079;PMS5003;33067;49.296;14.470;2023-09-18T08:45:44;26;24;
47079;PMS5003;33067;49.296;14.470;2023-09-18T08:48:07;20;20;
47079;PMS5003;33067;49.296;14.470;2023-09-18T08:50:32;18;18;
47079;PMS5003;33067;49.296;14.470;2023-09-18T08:52:58;21;20;
47079;PMS5003;33067;49.296;14.470;2023-09-18T08:55:24;21;20;
47079;PMS5003;33067;49.296;14.470;2023-09-18T08:57:49;19;19;
47079;PMS5003;33067;49.296;14.470;2023-09-18T09:00:15;19;17;
47079;PMS5003;33067;49.296;14.470;2023-09-18T09:02:40;17;16;
47079;PMS5003;33067;49.296;14.470;2023-09-18T09:05:06;25;22;
47079;PMS5003;33067;49.296;14.470;2023-09-18T09:07:31;17;15;
47079;PMS5003;33067;49.296;14.470;2023-09-18T09:09:56;22;22;
47079;PMS5003;33067;49.296;14.470;2023-09-18T09:17:17;21;19;
47079;PMS5003;33067;49.296;14.470;2023-09-18T09:19:38;21;19;
47079;PMS5003;33067;49.296;14.470;2023-09-18T09:22:04;21;19;
47079;PMS5003;33067;49.296;14.470;2023-09-18T09:24:38;21;21;
47079;PMS5003;33067;49.296;14.470;2023-09-18T09:29:20;20;19;
47079;PMS5003;33067;49.296;14.470;2023-09-18T09:31:46;20;20;
47079;PMS5003;33067;49.296;14.470;2023-09-18T09:34:11;18;17;
47079;PMS5003;33067;49.296;14.470;2023-09-18T09:36:36;19;19;
47079;PMS5003;33067;49.296;14.470;2023-09-18T09:39:02;19;19;
47079;PMS5003;33067;49.296;14.470;2023-09-18T09:41:27;20;18;
47079;PMS5003;33067;49.296;14.470;2023-09-18T09:43:52;18;17;
47079;PMS5003;33067;49.296;14.470;2023-09-18T09:46:18;19;19;
47079;PMS5003;33067;49.296;14.470;2023-09-18T09:51:09;17;17;
47079;PMS5003;33067;49.296;14.470;2023-09-18T09:53:42;19;19;
47079;PMS5003;33067;49.296;14.470;2023-09-18T09:56:00;19;18;
47079;PMS5003;33067;49.296;14.470;2023-09-18T09:58:27;21;20;
47079;PMS5003;33067;49.296;14.470;2023-09-18T10:00:51;21;19;
47079;PMS5003;33067;49.296;14.470;2023-09-18T10:03:17;20;19;
47079;PMS5003;33067;49.296;14.470;2023-09-18T10:05:47;18;17;
47079;PMS5003;33067;49.296;14.470;2023-09-18T10:13:01;18;18;
47079;PMS5003;33067;49.296;14.470;2023-09-18T10:15:24;19;19;
47079;PMS5003;33067;49.296;14.470;2023-09-18T10:17:49;33;33;
47079;PMS5003;33067;49.296;14.470;2023-09-18T10:20:15;34;34;
47079;PMS5003;33067;49.296;14.470;2023-09-18T10:22:44;31;31;
47079;PMS5003;33067;49.296;14.470;2023-09-18T10:25:06;20;19;
47079;PMS5003;33067;49.296;14.470;2023-09-18T10:27:31;20;20;
47079;PMS5003;33067;49.296;14.470;2023-09-18T10:29:56;21;20;
47079;PMS5003;33067;49.296;14.470;2023-09-18T10:32:22;21;19;
47079;PMS5003;33067;49.296;14.470;2023-09-18T10:34:47;22;22;
47079;PMS5003;33067;49.296;14.470;2023-09-18T10:37:15;24;22;
47079;PMS5003;33067;49.296;14.470;2023-09-18T10:39:39;20;20;
47079;PMS5003;33067;49.296;14.470;2023-09-18T10:42:04;22;22;
47079;PMS5003;33067;49.296;14.470;2023-09-18T10:44:30;18;18;
47079;PMS5003;33067;49.296;14.470;2023-09-18T10:46:55;20;19;
47079;PMS5003;33067;49.296;14.470;2023-09-18T10:49:21;18;18;
47079;PMS5003;33067;49.296;14.470;2023-09-18T10:51:47;18;18;
47079;PMS5003;33067;49.296;14.470;2023-09-18T10:54:15;20;20;
47079;PMS5003;33067;49.296;14.470;2023-09-18T10:56:38;21;21;
47079;PMS5003;33067;49.296;14.470;2023-09-18T10:59:05;24;23;
47079;PMS5003;33067;49.296;14.470;2023-09-18T11:01:29;18;18;
47079;PMS5003;33067;49.296;14.470;2023-09-18T11:03:57;22;20;
47079;PMS5003;33067;49.296;14.470;2023-09-18T11:06:19;17;17;
47079;PMS5003;33067;49.296;14.470;2023-09-18T11:08:45;22;21;
47079;PMS5003;33067;49.296;14.470;2023-09-18T11:11:12;28;26;
47079;PMS5003;33067;49.296;14.470;2023-09-18T11:13:39;27;26;
47079;PMS5003;33067;49.296;14.470;2023-09-18T11:16:13;24;24;
47079;PMS5003;33067;49.296;14.470;2023-09-18T11:18:32;22;22;
47079;PMS5003;33067;49.296;14.470;2023-09-18T11:23:19;32;30;
47079;PMS5003;33067;49.296;14.470;2023-09-18T11:25:45;30;30;
47079;PMS5003;33067;49.296;14.470;2023-09-18T11:28:13;26;26;
47079;PMS5003;33067;49.296;14.470;2023-09-18T11:30:36;28;28;
47079;PMS5003;33067;49.296;14.470;2023-09-18T11:35:26;28;28;
47079;PMS5003;33067;49.296;14.470;2023-09-18T11:45:08;22;19;
47079;PMS5003;33067;49.296;14.470;2023-09-18T11:47:43;19;19;
47079;PMS5003;33067;49.296;14.470;2023-09-18T11:49:58;16;16;
47079;PMS5003;33067;49.296;14.470;2023-09-18T11:52:24;15;15;
47079;PMS5003;33067;49.296;14.470;2023-09-18T11:54:49;15;15;
47079;PMS5003;33067;49.296;14.470;2023-09-18T11:57:15;17;16;
47079;PMS5003;33067;49.296;14.470;2023-09-18T11:59:41;19;18;
47079;PMS5003;33067;49.296;14.470;2023-09-18T12:02:06;14;14;
47079;PMS5003;33067;49.296;14.470;2023-09-18T12:04:31;19;19;
47079;PMS5003;33067;49.296;14.470;2023-09-18T12:06:57;17;17;
47079;PMS5003;33067;49.296;14.470;2023-09-18T12:09:22;16;16;
47079;PMS5003;33067;49.296;14.470;2023-09-18T12:11:47;17;17;
47079;PMS5003;33067;49.296;14.470;2023-09-18T12:14:13;17;16;
47079;PMS5003;33067;49.296;14.470;2023-09-18T12:16:39;17;17;
47079;PMS5003;33067;49.296;14.470;2023-09-18T12:19:04;17;16;
47079;PMS5003;33067;49.296;14.470;2023-09-18T12:21:30;15;15;
47079;PMS5003;33067;49.296;14.470;2023-09-18T12:23:55;15;15;
47079;PMS5003;33067;49.296;14.470;2023-09-18T12:26:21;20;20;
47079;PMS5003;33067;49.296;14.470;2023-09-18T12:28:46;15;15;
47079;PMS5003;33067;49.296;14.470;2023-09-18T12:31:12;15;15;
47079;PMS5003;33067;49.296;14.470;2023-09-18T12:33:38;14;14;
47079;PMS5003;33067;49.296;14.470;2023-09-18T12:36:03;17;16;
47079;PMS5003;33067;49.296;14.470;2023-09-18T12:38:29;14;14;
47079;PMS5003;33067;49.296;14.470;2023-09-18T12:40:54;15;15;
47079;PMS5003;33067;49.296;14.470;2023-09-18T12:43:20;17;17;
47079;PMS5003;33067;49.296;14.470;2023-09-18T12:45:45;20;18;
47079;PMS5003;33067;49.296;14.470;2023-09-18T12:48:11;16;16;
47079;PMS5003;33067;49.296;14.470;2023-09-18T12:50:36;18;16;
47079;PMS5003;33067;49.296;14.470;2023-09-18T12:53:08;17;17;
47079;PMS5003;33067;49.296;14.470;2023-09-18T12:55:27;14;14;
47079;PMS5003;33067;49.296;14.470;2023-09-18T12:57:53;15;14;
47079;PMS5003;33067;49.296;14.470;2023-09-18T13:07:43;13;13;
47079;PMS5003;33067;49.296;14.470;2023-09-18T13:10:02;16;16;
47079;PMS5003;33067;49.296;14.470;2023-09-18T13:14:57;16;16;
47079;PMS5003;33067;49.296;14.470;2023-09-18T13:17:18;16;16;
47079;PMS5003;33067;49.296;14.470;2023-09-18T13:19:43;14;14;
47079;PMS5003;33067;49.296;14.470;2023-09-18T13:22:08;16;16;
47079;PMS5003;33067;49.296;14.470;2023-09-18T13:24:34;20;20;
47079;PMS5003;33067;49.296;14.470;2023-09-18T13:26:59;17;16;
47079;PMS5003;33067;49.296;14.470;2023-09-18T13:29:25;16;15;
47079;PMS5003;33067;49.296;14.470;2023-09-18T13:31:50;15;15;
47079;PMS5003;33067;49.296;14.470;2023-09-18T13:34:16;17;17;
47079;PMS5003;33067;49.296;14.470;2023-09-18T13:36:41;17;17;
47079;PMS5003;33067;49.296;14.470;2023-09-18T13:39:07;14;14;
47079;PMS5003;33067;49.296;14.470;2023-09-18T13:41:32;17;15;
47079;PMS5003;33067;49.296;14.470;2023-09-18T13:43:58;16;16;
47079;PMS5003;33067;49.296;14.470;2023-09-18T13:46:24;14;14;
47079;PMS5003;33067;49.296;14.470;2023-09-18T13:48:49;16;16;
47079;PMS5003;33067;49.296;14.470;2023-09-18T13:51:15;12;12;
47079;PMS5003;33067;49.296;14.470;2023-09-18T13:53:40;17;16;
47079;PMS5003;33067;49.296;14.470;2023-09-18T13:56:06;15;14;
47079;PMS5003;33067;49.296;14.470;2023-09-18T13:58:31;16;15;
47079;PMS5003;33067;49.296;14.470;2023-09-18T14:00:56;13;13;
47079;PMS5003;33067;49.296;14.470;2023-09-18T14:03:22;13;13;
47079;PMS5003;33067;49.296;14.470;2023-09-18T14:08:13;15;15;
47079;PMS5003;33067;49.296;14.470;2023-09-18T14:10:39;14;13;
47079;PMS5003;33067;49.296;14.470;2023-09-18T14:13:05;16;16;
47079;PMS5003;33067;49.296;14.470;2023-09-18T14:15:30;17;17;
47079;PMS5003;33067;49.296;14.470;2023-09-18T14:17:56;15;14;
47079;PMS5003;33067;49.296;14.470;2023-09-18T14:20:21;14;14;
47079;PMS5003;33067;49.296;14.470;2023-09-18T14:22:47;17;15;
47079;PMS5003;33067;49.296;14.470;2023-09-18T14:25:12;17;15;
47079;PMS5003;33067;49.296;14.470;2023-09-18T14:27:38;14;12;
47079;PMS5003;33067;49.296;14.470;2023-09-18T14:30:04;14;14;
47079;PMS5003;33067;49.296;14.470;2023-09-18T14:32:29;16;16;
47079;PMS5003;33067;49.296;14.470;2023-09-18T14:34:55;25;25;
47079;PMS5003;33067;49.296;14.470;2023-09-18T14:37:20;14;14;
47079;PMS5003;33067;49.296;14.470;2023-09-18T14:39:45;13;13;
47079;PMS5003;33067;49.296;14.470;2023-09-18T14:42:10;20;20;
47079;PMS5003;33067;49.296;14.470;2023-09-18T14:44:36;16;16;
47079;PMS5003;33067;49.296;14.470;2023-09-18T14:47:01;13;13;
47079;PMS5003;33067;49.296;14.470;2023-09-18T14:49:27;15;15;
47079;PMS5003;33067;49.296;14.470;2023-09-18T14:51:53;13;13;
47079;PMS5003;33067;49.296;14.470;2023-09-18T14:54:18;15;15;
47079;PMS5003;33067;49.296;14.470;2023-09-18T14:56:44;16;16;
47079;PMS5003;33067;49.296;14.470;2023-09-18T14:59:09;14;14;
47079;PMS5003;33067;49.296;14.470;2023-09-18T15:01:34;21;21;
47079;PMS5003;33067;49.296;14.470;2023-09-18T15:04:00;14;14;
47079;PMS5003;33067;49.296;14.470;2023-09-18T15:06:26;15;15;
47079;PMS5003;33067;49.296;14.470;2023-09-18T15:08:51;16;16;
47079;PMS5003;33067;49.296;14.470;2023-09-18T15:11:16;14;14;
47079;PMS5003;33067;49.296;14.470;2023-09-18T15:13:41;20;20;
47079;PMS5003;33067;49.296;14.470;2023-09-18T15:16:07;17;16;
47079;PMS5003;33067;49.296;14.470;2023-09-18T15:18:33;18;18;
47079;PMS5003;33067;49.296;14.470;2023-09-18T15:20:58;15;15;
47079;PMS5003;33067;49.296;14.470;2023-09-18T15:23:24;16;16;
47079;PMS5003;33067;49.296;14.470;2023-09-18T15:25:50;15;14;
47079;PMS5003;33067;49.296;14.470;2023-09-18T15:28:15;14;14;
47079;PMS5003;33067;49.296;14.470;2023-09-18T15:30:40;12;12;
47079;PMS5003;33067;49.296;14.470;2023-09-18T15:33:06;18;16;
47079;PMS5003;33067;49.296;14.470;2023-09-18T15:35:31;15;15;
47079;PMS5003;33067;49.296;14.470;2023-09-18T15:37:56;15;14;
47079;PMS5003;33067;49.296;14.470;2023-09-18T15:40:22;13;13;
47079;PMS5003;33067;49.296;14.470;2023-09-18T15:42:48;16;16;
47079;PMS5003;33067;49.296;14.470;2023-09-18T15:45:13;19;17;
47079;PMS5003;33067;49.296;14.470;2023-09-18T15:47:38;16;15;
47079;PMS5003;33067;49.296;14.470;2023-09-18T15:50:04;15;15;
47079;PMS5003;33067;49.296;14.470;2023-09-18T15:52:29;17;16;
47079;PMS5003;33067;49.296;14.470;2023-09-18T15:54:55;16;16;
47079;PMS5003;33067;49.296;14.470;2023-09-18T15:59:47;16;16;
47079;PMS5003;33067;49.296;14.470;2023-09-18T16:02:12;16;16;
47079;PMS5003;33067;49.296;14.470;2023-09-18T16:07:03;18;16;
47079;PMS5003;33067;49.296;14.470;2023-09-18T16:21:36;15;15;
47079;PMS5003;33067;49.296;14.470;2023-09-18T16:24:02;15;15;
47079;PMS5003;33067;49.296;14.470;2023-09-18T16:26:27;17;16;
47079;PMS5003;33067;49.296;14.470;2023-09-18T16:28:53;18;17;
47079;PMS5003;33067;49.296;14.470;2023-09-18T16:31:18;15;14;
47079;PMS5003;33067;49.296;14.470;2023-09-18T16:33:44;12;12;
47079;PMS5003;33067;49.296;14.470;2023-09-18T16:36:09;13;11;
47079;PMS5003;33067;49.296;14.470;2023-09-18T16:38:35;15;15;
47079;PMS5003;33067;49.296;14.470;2023-09-18T16:41:01;13;13;
47079;PMS5003;33067;49.296;14.470;2023-09-18T16:43:26;11;11;
47079;PMS5003;33067;49.296;14.470;2023-09-18T16:45:52;11;11;
47079;PMS5003;33067;49.296;14.470;2023-09-18T16:48:18;12;12;
47079;PMS5003;33067;49.296;14.470;2023-09-18T16:50:43;14;13;
47079;PMS5003;33067;49.296;14.470;2023-09-18T16:53:08;11;11;
47079;PMS5003;33067;49.296;14.470;2023-09-18T16:55:34;11;11;
47079;PMS5003;33067;49.296;14.470;2023-09-18T16:58:01;11;11;
47079;PMS5003;33067;49.296;14.470;2023-09-18T17:00:26;14;14;
47079;PMS5003;33067;49.296;14.470;2023-09-18T17:02:51;15;14;
47079;PMS5003;33067;49.296;14.470;2023-09-18T17:05:17;22;21;
47079;PMS5003;33067;49.296;14.470;2023-09-18T17:07:43;19;16;
47079;PMS5003;33067;49.296;14.470;2023-09-18T17:10:09;19;19;
47079;PMS5003;33067;49.296;14.470;2023-09-18T17:12:34;20;20;
47079;PMS5003;33067;49.296;14.470;2023-09-18T17:15:00;19;19;
47079;PMS5003;33067;49.296;14.470;2023-09-18T17:17:25;23;21;
47079;PMS5003;33067;49.296;14.470;2023-09-18T17:19:51;10;10;
47079;PMS5003;33067;49.296;14.470;2023-09-18T17:22:16;23;21;
47079;PMS5003;33067;49.296;14.470;2023-09-18T17:24:42;8;8;
47079;PMS5003;33067;49.296;14.470;2023-09-18T17:27:08;10;9;
47079;PMS5003;33067;49.296;14.470;2023-09-18T17:29:34;8;7;
47079;PMS5003;33067;49.296;14.470;2023-09-18T17:31:59;5;5;
47079;PMS5003;33067;49.296;14.470;2023-09-18T17:34:25;5;4;
47079;PMS5003;33067;49.296;14.470;2023-09-18T17:36:51;4;3;
47079;PMS5003;33067;49.296;14.470;2023-09-18T17:39:18;2;2;
47079;PMS5003;33067;49.296;14.470;2023-09-18T17:41:43;6;6;
47079;PMS5003;33067;49.296;14.470;2023-09-18T17:44:08;5;5;
47079;PMS5003;33067;49.296;14.470;2023-09-18T17:46:34;3;3;
47079;PMS5003;33067;49.296;14.470;2023-09-18T17:49:00;9;5;
47079;PMS5003;33067;49.296;14.470;2023-09-18T17:51:25;4;3;
47079;PMS5003;33067;49.296;14.470;2023-09-18T17:53:51;1;1;
47079;PMS5003;33067;49.296;14.470;2023-09-18T17:56:17;1;1;
47079;PMS5003;33067;49.296;14.470;2023-09-18T17:58:43;1;1;
47079;PMS5003;33067;49.296;14.470;2023-09-18T18:01:09;3;1;
47079;PMS5003;33067;49.296;14.470;2023-09-18T18:03:35;1;1;
47079;PMS5003;33067;49.296;14.470;2023-09-18T18:06:00;1;1;
47079;PMS5003;33067;49.296;14.470;2023-09-18T18:08:26;4;1;
47079;PMS5003;33067;49.296;14.470;2023-09-18T18:10:52;2;2;
47079;PMS5003;33067;49.296;14.470;2023-09-18T18:13:18;2;2;
47079;PMS5003;33067;49.296;14.470;2023-09-18T18:15:43;0;0;
47079;PMS5003;33067;49.296;14.470;2023-09-18T18:18:09;1;1;
47079;PMS5003;33067;49.296;14.470;2023-09-18T18:20:35;1;1;
47079;PMS5003;33067;49.296;14.470;2023-09-18T18:23:01;1;1;
47079;PMS5003;33067;49.296;14.470;2023-09-18T18:25:27;2;1;
47079;PMS5003;33067;49.296;14.470;2023-09-18T18:27:52;1;1;
47079;PMS5003;33067;49.296;14.470;2023-09-18T18:30:18;1;1;
47079;PMS5003;33067;49.296;14.470;2023-09-18T18:32:44;1;1;
47079;PMS5003;33067;49.296;14.470;2023-09-18T18:35:10;0;0;